createdAt,value
2018-05-18T00:00:56.588Z,85.70
2018-05-18T00:03:22.912Z,85.70
2018-05-18T00:05:49.284Z,85.60
2018-05-18T00:08:15.616Z,86.10
2018-05-18T00:10:41.987Z,86.60
2018-05-18T00:13:09.056Z,86.40
2018-05-18T00:15:35.387Z,86.40
2018-05-18T00:18:01.697Z,86.20
2018-05-18T00:20:28.763Z,85.70
2018-05-18T00:22:55.121Z,85.70
2018-05-18T00:25:22.433Z,86.20
2018-05-18T00:27:48.788Z,85.80
2018-05-18T00:30:15.168Z,85.40
2018-05-18T00:32:41.527Z,85.40
2018-05-18T00:35:08.595Z,86.00
2018-05-18T00:37:34.935Z,86.00
2018-05-18T00:40:01.377Z,85.30
2018-05-18T00:42:27.627Z,84.90
2018-05-18T00:44:54.043Z,84.50
2018-05-18T00:47:20.414Z,84.60
2018-05-18T00:49:47.468Z,85.20
2018-05-18T00:52:14.531Z,85.70
2018-05-18T00:54:40.852Z,85.70
2018-05-18T00:57:07.192Z,85.30
2018-05-18T00:59:33.539Z,86.10
2018-05-18T01:01:59.858Z,86.50
2018-05-18T01:04:26.256Z,86.00
2018-05-18T01:06:52.598Z,84.80
2018-05-18T01:09:18.973Z,83.80
2018-05-18T01:11:45.319Z,84.30
2018-05-18T01:14:11.692Z,84.10
2018-05-18T01:16:38.019Z,83.80
2018-05-18T01:19:04.397Z,83.90
2018-05-18T01:21:30.733Z,83.70
2018-05-18T01:23:57.081Z,83.70
2018-05-18T01:26:23.391Z,83.70
2018-05-18T01:28:49.809Z,83.70
2018-05-18T01:31:16.138Z,82.80
2018-05-18T01:33:42.575Z,82.30
2018-05-18T01:36:08.893Z,82.30
2018-05-18T01:38:35.265Z,82.00
2018-05-18T01:41:03.214Z,82.00
2018-05-18T01:43:29.515Z,82.00
2018-05-18T01:45:58.214Z,82.80
2018-05-18T01:48:24.556Z,82.80
2018-05-18T01:50:50.887Z,84.40
2018-05-18T01:53:17.189Z,83.50
2018-05-18T01:55:43.539Z,83.50
2018-05-18T01:58:09.865Z,83.20
2018-05-18T02:00:36.193Z,82.20
2018-05-18T02:03:02.556Z,82.00
2018-05-18T02:05:29.633Z,80.60
2018-05-18T02:07:55.942Z,80.60
2018-05-18T02:10:22.308Z,80.70
2018-05-18T02:12:48.627Z,80.60
2018-05-18T02:15:14.999Z,81.00
2018-05-18T02:17:41.317Z,80.30
2018-05-18T02:20:07.670Z,80.80
2018-05-18T02:22:34.734Z,81.50
2018-05-18T02:25:01.121Z,81.50
2018-05-18T02:27:27.465Z,81.10
2018-05-18T02:29:53.798Z,80.70
2018-05-18T02:32:20.136Z,80.60
2018-05-18T02:34:46.462Z,80.90
2018-05-18T02:37:13.546Z,81.30
2018-05-18T02:39:39.900Z,81.20
2018-05-18T02:42:06.271Z,80.90
2018-05-18T02:44:33.333Z,81.30
2018-05-18T02:46:59.665Z,81.30
2018-05-18T02:49:26.715Z,81.10
2018-05-18T02:51:53.068Z,81.10
2018-05-18T02:54:19.384Z,81.80
2018-05-18T02:56:45.687Z,81.00
2018-05-18T02:59:12.749Z,82.10
2018-05-18T03:01:39.075Z,81.20
2018-05-18T03:04:06.160Z,81.00
2018-05-18T03:06:32.494Z,81.10
2018-05-18T03:08:58.809Z,80.10
2018-05-18T03:11:25.163Z,80.90
2018-05-18T03:13:51.521Z,79.50
2018-05-18T03:16:17.828Z,80.20
2018-05-18T03:18:44.199Z,80.00
2018-05-18T03:21:11.265Z,79.40
2018-05-18T03:23:37.632Z,79.30
2018-05-18T03:26:03.962Z,79.10
2018-05-18T03:28:30.324Z,79.40
2018-05-18T03:30:57.369Z,80.20
2018-05-18T03:33:23.727Z,80.10
2018-05-18T03:35:50.040Z,79.70
2018-05-18T03:38:16.365Z,80.20
2018-05-18T03:40:42.706Z,79.10
2018-05-18T03:43:09.001Z,78.80
2018-05-18T03:45:35.334Z,78.80
2018-05-18T03:48:01.662Z,79.50
2018-05-18T03:50:28.005Z,79.00
2018-05-18T03:52:55.091Z,79.60
2018-05-18T03:55:21.450Z,79.60
2018-05-18T03:57:47.800Z,79.80
2018-05-18T04:00:14.130Z,80.30
2018-05-18T04:02:58.848Z,79.10
2018-05-18T04:05:43.637Z,79.10
2018-05-18T04:08:17.784Z,79.20
2018-05-18T04:10:44.916Z,79.20
2018-05-18T04:13:11.264Z,79.00
2018-05-18T04:15:37.643Z,79.80
2018-05-18T04:18:03.960Z,79.20
2018-05-18T04:20:30.295Z,79.40
2018-05-18T04:22:56.680Z,78.70
2018-05-18T04:25:23.781Z,80.00
2018-05-18T04:27:50.131Z,80.00
2018-05-18T04:30:16.526Z,79.70
2018-05-18T04:32:43.845Z,78.90
2018-05-18T04:35:10.157Z,78.50
2018-05-18T04:37:36.478Z,78.10
2018-05-18T04:40:02.850Z,77.00
2018-05-18T04:42:29.207Z,78.20
2018-05-18T04:44:55.578Z,77.80
2018-05-18T04:47:21.890Z,77.70
2018-05-18T04:49:48.175Z,77.80
2018-05-18T04:52:14.540Z,77.50
2018-05-18T04:54:40.861Z,76.80
2018-05-18T04:57:07.237Z,77.60
2018-05-18T04:59:33.542Z,77.70
2018-05-18T05:01:59.902Z,77.30
2018-05-18T05:04:26.260Z,77.50
2018-05-18T05:06:52.812Z,77.60
2018-05-18T05:09:19.313Z,77.60
2018-05-18T05:11:45.637Z,77.20
2018-05-18T05:14:11.984Z,77.40
2018-05-18T05:16:38.269Z,77.60
2018-05-18T05:19:04.607Z,75.90
2018-05-18T05:21:30.980Z,76.20
2018-05-18T05:23:57.358Z,76.80
2018-05-18T05:26:23.728Z,76.80
2018-05-18T05:28:50.088Z,76.90
2018-05-18T05:31:16.409Z,76.90
2018-05-18T05:33:42.758Z,75.80
2018-05-18T05:36:09.100Z,75.10
2018-05-18T05:38:35.413Z,75.00
2018-05-18T05:41:01.786Z,74.70
2018-05-18T05:43:28.121Z,74.60
2018-05-18T05:45:54.447Z,73.70
2018-05-18T05:48:20.816Z,74.00
2018-05-18T05:50:47.170Z,74.10
2018-05-18T05:53:13.459Z,73.30
2018-05-18T05:55:39.861Z,70.80
2018-05-18T05:58:06.211Z,71.00
2018-05-18T06:00:32.460Z,71.60
2018-05-18T06:02:58.778Z,72.10
2018-05-18T06:05:25.228Z,71.50
2018-05-18T06:07:52.214Z,72.50
2018-05-18T06:10:18.518Z,72.50
2018-05-18T06:12:44.870Z,71.40
2018-05-18T06:15:11.959Z,69.30
2018-05-18T06:17:38.319Z,69.30
2018-05-18T06:20:04.698Z,68.90
2018-05-18T06:22:31.099Z,67.10
2018-05-18T06:24:57.391Z,65.70
2018-05-18T06:27:23.699Z,65.70
2018-05-18T06:29:50.057Z,65.80
2018-05-18T06:32:16.414Z,65.80
2018-05-18T06:34:42.767Z,65.70
2018-05-18T06:37:09.121Z,64.60
2018-05-18T06:39:35.449Z,65.90
2018-05-18T06:42:02.468Z,65.80
2018-05-18T06:44:30.296Z,65.90
2018-05-18T06:46:56.610Z,65.90
2018-05-18T06:49:22.992Z,66.00
2018-05-18T06:51:50.061Z,65.50
2018-05-18T06:54:16.450Z,65.60
2018-05-18T06:56:43.535Z,66.10
2018-05-18T06:59:09.872Z,66.10
2018-05-18T07:01:36.220Z,66.20
2018-05-18T07:04:02.654Z,66.70
2018-05-18T07:06:28.994Z,65.30
2018-05-18T07:08:55.436Z,64.80
2018-05-18T07:11:21.773Z,64.20
2018-05-18T07:13:48.142Z,65.50
2018-05-18T07:16:14.475Z,64.70
2018-05-18T07:18:40.844Z,64.40
2018-05-18T07:21:07.200Z,64.50
2018-05-18T07:23:41.780Z,64.10
2018-05-18T07:26:08.128Z,62.90
2018-05-18T07:28:34.455Z,62.50
2018-05-18T07:31:00.876Z,62.50
2018-05-18T07:33:27.222Z,62.30
2018-05-18T07:35:53.565Z,62.30
2018-05-18T07:38:19.892Z,62.80
2018-05-18T07:40:46.243Z,63.60
2018-05-18T07:43:13.340Z,61.40
2018-05-18T07:45:39.714Z,62.10
2018-05-18T07:48:06.787Z,62.50
2018-05-18T07:50:33.106Z,62.50
2018-05-18T07:52:59.455Z,62.10
2018-05-18T07:55:25.767Z,62.20
2018-05-18T07:57:52.088Z,61.10
2018-05-18T08:00:18.443Z,61.50
2018-05-18T08:02:44.789Z,60.40
2018-05-18T08:05:11.156Z,61.10
2018-05-18T08:07:37.527Z,60.30
2018-05-18T08:10:03.896Z,59.50
2018-05-18T08:12:30.211Z,59.90
2018-05-18T08:14:56.580Z,60.20
2018-05-18T08:17:23.676Z,59.40
2018-05-18T08:19:50.057Z,59.40
2018-05-18T08:22:16.346Z,60.00
2018-05-18T08:24:42.701Z,60.20
2018-05-18T08:27:21.765Z,59.20
2018-05-18T08:29:48.103Z,59.30
2018-05-18T08:32:14.468Z,58.80
2018-05-18T08:34:40.796Z,59.60
2018-05-18T08:37:07.196Z,59.70
2018-05-18T08:39:33.517Z,58.80
2018-05-18T08:41:59.860Z,59.00
2018-05-18T08:44:26.264Z,57.60
2018-05-18T08:46:52.623Z,58.90
2018-05-18T08:49:18.963Z,58.90
2018-05-18T08:51:45.350Z,58.90
2018-05-18T08:54:11.732Z,59.00
2018-05-18T08:56:39.368Z,58.00
2018-05-18T08:59:05.720Z,59.80
2018-05-18T09:01:32.077Z,59.00
2018-05-18T09:03:58.387Z,58.80
2018-05-18T09:09:05.626Z,57.90
2018-05-18T09:11:32.099Z,58.50
2018-05-18T09:13:58.424Z,56.70
2018-05-18T09:16:24.805Z,56.90
2018-05-18T09:18:51.916Z,56.90
2018-05-18T09:21:18.250Z,56.90
2018-05-18T09:23:44.614Z,56.50
2018-05-18T09:26:10.951Z,55.90
2018-05-18T09:28:38.040Z,57.70
2018-05-18T09:31:04.448Z,57.70
2018-05-18T09:33:31.514Z,55.10
2018-05-18T09:38:54.408Z,55.60
2018-05-18T09:41:20.745Z,55.30
2018-05-18T09:43:47.079Z,55.20
2018-05-18T09:46:13.491Z,55.80
2018-05-18T09:48:39.827Z,55.00
2018-05-18T09:51:06.206Z,54.90
2018-05-18T09:53:32.569Z,55.50
2018-05-18T09:55:58.921Z,54.40
2018-05-18T09:58:25.241Z,54.30
2018-05-18T10:00:51.620Z,52.90
2018-05-18T10:03:18.695Z,53.90
2018-05-18T10:05:45.034Z,53.80
2018-05-18T10:08:11.383Z,54.10
2018-05-18T10:10:38.321Z,54.40
2018-05-18T10:13:04.719Z,54.20
2018-05-18T10:15:31.096Z,53.20
2018-05-18T10:17:57.483Z,54.10
2018-05-18T10:20:23.833Z,53.30
2018-05-18T10:22:50.241Z,53.10
2018-05-18T10:25:25.526Z,51.50
2018-05-18T10:27:51.888Z,51.40
2018-05-18T10:30:18.272Z,50.50
2018-05-18T10:32:44.692Z,50.20
2018-05-18T10:35:11.727Z,54.20
2018-05-18T10:37:38.117Z,54.20
2018-05-18T10:40:04.505Z,52.60
2018-05-18T10:42:30.889Z,51.60
2018-05-18T10:44:58.059Z,50.70
2018-05-18T10:47:24.399Z,50.60
2018-05-18T10:49:51.464Z,51.20
2018-05-18T10:52:17.800Z,51.20
2018-05-18T10:54:44.200Z,51.20
2018-05-18T10:57:10.500Z,50.80
2018-05-18T10:59:37.598Z,49.20
2018-05-18T11:02:03.945Z,49.20
2018-05-18T11:04:30.240Z,49.20
2018-05-18T11:06:56.617Z,48.40
2018-05-18T11:09:22.932Z,47.70
2018-05-18T11:11:49.271Z,49.00
2018-05-18T11:14:15.699Z,47.60
2018-05-18T11:16:41.992Z,45.80
2018-05-18T11:19:08.330Z,47.50
2018-05-18T11:21:35.387Z,47.80
2018-05-18T11:24:01.717Z,47.80
2018-05-18T11:26:28.075Z,48.80
2018-05-18T11:28:54.405Z,48.50
2018-05-18T11:31:21.486Z,48.40
2018-05-18T11:33:47.891Z,48.40
2018-05-18T11:36:15.013Z,48.40
2018-05-18T11:38:41.326Z,48.40
2018-05-18T11:41:12.168Z,49.90
2018-05-18T11:43:39.688Z,48.80
2018-05-18T11:46:06.108Z,48.40
2018-05-18T11:48:32.451Z,47.20
2018-05-18T11:50:58.816Z,46.90
2018-05-18T11:53:25.954Z,46.40
2018-05-18T11:55:52.286Z,46.40
2018-05-18T11:58:18.645Z,45.90
2018-05-18T12:00:45.030Z,46.30
2018-05-18T12:03:11.440Z,46.30
2018-05-18T12:05:38.517Z,45.00
2018-05-18T12:08:04.879Z,45.00
2018-05-18T12:10:31.320Z,44.70
2018-05-18T12:12:57.657Z,44.00
2018-05-18T12:15:24.784Z,43.60
2018-05-18T12:17:51.108Z,43.70
2018-05-18T12:20:17.570Z,45.60
2018-05-18T12:22:43.901Z,45.60
2018-05-18T12:25:11.013Z,45.40
2018-05-18T12:27:37.341Z,45.40
2018-05-18T12:30:03.750Z,44.40
2018-05-18T12:32:30.192Z,43.30
2018-05-18T12:34:56.528Z,43.30
2018-05-18T12:37:22.967Z,43.90
2018-05-18T12:39:49.329Z,42.10
2018-05-18T12:42:15.803Z,43.30
2018-05-18T12:44:42.224Z,43.40
2018-05-18T12:47:08.597Z,41.00
2018-05-18T12:49:34.976Z,41.40
2018-05-18T12:52:02.094Z,41.60
2018-05-18T12:54:28.485Z,41.60
2018-05-18T12:56:54.971Z,41.10
2018-05-18T12:59:22.103Z,41.30
2018-05-18T13:01:48.448Z,41.30
2018-05-18T13:04:15.524Z,39.80
2018-05-18T13:06:41.938Z,39.80
2018-05-18T13:09:08.289Z,40.30
2018-05-18T13:11:34.717Z,41.20
2018-05-18T13:14:01.067Z,39.60
2018-05-18T13:16:27.469Z,39.50
2018-05-18T13:18:53.836Z,39.80
2018-05-18T13:21:20.868Z,39.30
2018-05-18T13:23:47.291Z,38.30
2018-05-18T13:26:13.644Z,39.10
2018-05-18T13:28:40.911Z,39.50
2018-05-18T13:31:07.821Z,41.10
2018-05-18T13:33:34.207Z,38.60
2018-05-18T13:36:00.601Z,40.70
2018-05-18T13:38:26.995Z,41.20
2018-05-18T13:40:53.364Z,42.20
2018-05-18T13:43:19.741Z,40.40
2018-05-18T13:45:46.827Z,41.20
2018-05-18T13:48:13.366Z,41.20
2018-05-18T13:50:40.731Z,41.40
2018-05-18T13:53:07.095Z,40.20
2018-05-18T13:55:33.626Z,40.40
2018-05-18T13:58:00.701Z,40.10
2018-05-18T14:00:28.326Z,40.00
2018-05-18T14:02:54.709Z,39.70
2018-05-18T14:05:21.061Z,40.10
2018-05-18T14:07:47.403Z,39.50
2018-05-18T14:10:14.517Z,38.90
2018-05-18T14:12:41.855Z,38.30
2018-05-18T14:15:08.226Z,40.00
2018-05-18T14:17:34.604Z,41.50
2018-05-18T14:20:00.954Z,40.10
2018-05-18T14:22:27.376Z,39.90
2018-05-18T14:24:53.777Z,40.40
2018-05-18T14:27:20.149Z,40.40
2018-05-18T14:29:46.862Z,41.30
2018-05-18T14:32:13.286Z,41.90
2018-05-18T14:34:40.382Z,40.50
2018-05-18T14:37:06.757Z,40.50
2018-05-18T14:39:33.143Z,40.20
2018-05-18T14:42:00.473Z,39.30
2018-05-18T14:44:26.833Z,39.60
2018-05-18T14:46:53.241Z,37.90
2018-05-18T14:49:19.629Z,38.10
2018-05-18T14:51:46.099Z,37.60
2018-05-18T14:54:12.558Z,38.90
2018-05-18T14:56:38.965Z,38.20
2018-05-18T14:59:05.357Z,37.30
2018-05-18T15:01:31.727Z,37.80
2018-05-18T15:03:58.095Z,38.80
2018-05-18T15:06:24.432Z,38.40
2018-05-18T15:08:50.849Z,38.10
2018-05-18T15:11:17.246Z,39.10
2018-05-18T15:13:43.590Z,38.50
2018-05-18T15:16:09.964Z,38.90
2018-05-18T15:18:37.084Z,39.60
2018-05-18T15:21:03.437Z,39.60
2018-05-18T15:23:30.606Z,39.40
2018-05-18T15:25:57.015Z,39.40
2018-05-18T15:28:23.385Z,39.50
2018-05-18T15:30:49.740Z,39.90
2018-05-18T15:33:16.100Z,40.30
2018-05-18T15:35:42.429Z,39.60
2018-05-18T15:38:08.774Z,40.40
2018-05-18T15:40:35.252Z,39.60
2018-05-18T15:43:01.638Z,40.60
2018-05-18T15:45:28.754Z,40.90
2018-05-18T15:47:55.099Z,40.80
2018-05-18T15:50:21.462Z,39.60
2018-05-18T15:52:47.819Z,40.20
2018-05-18T15:55:14.221Z,40.90
2018-05-18T15:57:40.590Z,40.90
2018-05-18T16:00:07.067Z,40.90
2018-05-18T16:02:34.156Z,41.60
2018-05-18T16:05:00.536Z,41.70
2018-05-18T16:07:26.932Z,41.00
2018-05-18T16:09:53.309Z,40.00
2018-05-18T16:12:21.175Z,40.40
2018-05-18T16:14:48.304Z,41.10
2018-05-18T16:17:14.669Z,40.90
2018-05-18T16:19:41.068Z,40.60
2018-05-18T16:22:07.409Z,40.10
2018-05-18T16:24:33.775Z,40.00
2018-05-18T16:27:00.137Z,39.80
2018-05-18T16:29:26.535Z,39.60
2018-05-18T16:31:52.949Z,39.50
2018-05-18T16:34:20.043Z,39.60
2018-05-18T16:36:47.284Z,39.50
2018-05-18T16:39:13.713Z,39.60
2018-05-18T16:41:40.183Z,38.90
2018-05-18T16:44:06.548Z,38.80
2018-05-18T16:46:33.556Z,39.20
2018-05-18T16:48:59.948Z,39.60
2018-05-18T16:51:26.320Z,40.20
2018-05-18T16:53:52.737Z,40.30
2018-05-18T16:56:19.121Z,41.00
2018-05-18T16:58:45.499Z,40.90
2018-05-18T17:01:11.871Z,40.80
2018-05-18T17:03:39.539Z,40.70
2018-05-18T17:06:05.925Z,40.70
2018-05-18T17:08:32.264Z,39.40
2018-05-18T17:10:58.749Z,39.80
2018-05-18T17:13:25.109Z,39.80
2018-05-18T17:15:51.528Z,39.60
2018-05-18T17:18:17.903Z,39.90
2018-05-18T17:20:44.325Z,40.20
2018-05-18T17:23:11.437Z,40.10
2018-05-18T17:25:37.818Z,40.10
2018-05-18T17:28:04.313Z,39.90
2018-05-18T17:30:30.695Z,39.70
2018-05-18T17:32:57.120Z,39.00
2018-05-18T17:35:23.540Z,38.70
2018-05-18T17:37:49.976Z,38.80
2018-05-18T17:40:16.346Z,39.00
2018-05-18T17:42:42.692Z,38.40
2018-05-18T17:45:09.108Z,39.10
2018-05-18T17:47:35.496Z,37.60
2018-05-18T17:50:02.654Z,36.80
2018-05-18T17:52:29.791Z,36.80
2018-05-18T17:54:56.172Z,37.60
2018-05-18T17:57:22.515Z,37.50
2018-05-18T17:59:48.856Z,38.10
2018-05-18T18:02:15.229Z,38.70
2018-05-18T18:04:41.681Z,39.20
2018-05-18T18:07:08.052Z,39.50
2018-05-18T18:09:35.194Z,40.40
2018-05-18T18:12:01.582Z,41.10
2018-05-18T18:14:28.005Z,40.70
2018-05-18T18:16:54.450Z,41.00
2018-05-18T18:19:20.824Z,40.90
2018-05-18T18:21:48.019Z,41.40
2018-05-18T18:24:14.377Z,40.90
2018-05-18T18:26:40.876Z,40.80
2018-05-18T18:29:07.247Z,41.50
2018-05-18T18:31:33.664Z,42.40
2018-05-18T18:34:00.080Z,42.90
2018-05-18T18:36:26.447Z,42.90
2018-05-18T18:38:52.892Z,43.80
2018-05-18T18:41:19.252Z,44.40
2018-05-18T18:43:46.379Z,45.00
2018-05-18T18:46:13.572Z,45.20
2018-05-18T18:48:40.076Z,45.20
2018-05-18T18:51:06.431Z,45.50
2018-05-18T18:53:33.538Z,46.30
2018-05-18T18:56:00.648Z,46.10
2018-05-18T18:58:27.073Z,46.50
2018-05-18T19:00:53.429Z,47.00
2018-05-18T19:03:20.585Z,47.80
2018-05-18T19:05:46.966Z,47.80
2018-05-18T19:08:13.373Z,48.10
2018-05-18T19:10:39.708Z,48.20
2018-05-18T19:13:06.915Z,48.90
2018-05-18T19:15:33.376Z,48.90
2018-05-18T19:18:00.455Z,49.60
2018-05-18T19:20:27.696Z,50.10
2018-05-18T19:22:54.081Z,50.00
2018-05-18T19:25:20.509Z,50.60
2018-05-18T19:27:46.863Z,51.20
2018-05-18T19:30:13.290Z,51.10
2018-05-18T19:32:39.756Z,51.50
2018-05-18T19:35:06.261Z,52.20
2018-05-18T19:37:32.652Z,52.90
2018-05-18T19:39:59.059Z,53.40
2018-05-18T19:42:25.434Z,53.70
2018-05-18T19:44:52.600Z,53.90
2018-05-18T19:47:19.716Z,54.10
2018-05-18T19:49:46.081Z,54.10
2018-05-18T19:52:13.344Z,54.80
2018-05-18T19:54:39.865Z,54.20
2018-05-18T19:57:06.363Z,55.00
2018-05-18T19:59:32.743Z,53.70
2018-05-18T20:01:59.169Z,54.00
2018-05-18T20:04:25.530Z,54.30
2018-05-18T20:06:51.976Z,54.60
2018-05-18T20:09:18.442Z,55.00
2018-05-18T20:11:49.163Z,55.00
2018-05-18T20:14:16.294Z,55.50
2018-05-18T20:16:42.640Z,55.60
2018-05-18T20:19:09.034Z,55.60
2018-05-18T20:21:35.404Z,56.40
2018-05-18T20:24:01.803Z,56.30
2018-05-18T20:26:28.214Z,56.90
2018-05-18T20:28:54.640Z,57.30
2018-05-18T20:31:21.005Z,57.50
2018-05-18T20:33:47.409Z,57.20
2018-05-18T20:36:13.758Z,57.60
2018-05-18T20:38:40.145Z,57.30
2018-05-18T20:41:07.326Z,57.80
2018-05-18T20:43:33.702Z,57.80
2018-05-18T20:46:00.078Z,57.80
2018-05-18T20:48:26.479Z,58.10
2018-05-18T20:50:53.612Z,59.00
2018-05-18T20:53:19.993Z,59.00
2018-05-18T20:55:46.372Z,58.70
2018-05-18T20:58:12.724Z,59.40
2018-05-18T21:00:39.816Z,59.60
2018-05-18T21:03:06.155Z,59.70
2018-05-18T21:05:32.530Z,59.70
2018-05-18T21:07:59.637Z,60.10
2018-05-18T21:10:26.006Z,60.10
2018-05-18T21:12:53.946Z,61.80
2018-05-18T21:15:20.395Z,61.70
2018-05-18T21:17:47.494Z,62.70
2018-05-18T21:20:14.635Z,62.90
2018-05-18T21:22:47.942Z,62.90
2018-05-18T21:25:14.289Z,62.90
2018-05-18T21:27:40.717Z,62.70
2018-05-18T21:30:07.093Z,62.70
2018-05-18T21:32:33.476Z,62.30
2018-05-18T21:34:59.860Z,62.70
2018-05-18T21:37:26.307Z,63.30
2018-05-18T21:39:52.641Z,63.60
2018-05-18T21:42:19.063Z,62.60
2018-05-18T21:44:45.398Z,63.70
2018-05-18T21:47:11.782Z,64.30
2018-05-18T21:49:38.111Z,63.90
2018-05-18T21:52:04.477Z,63.80
2018-05-18T21:54:30.885Z,64.00
2018-05-18T21:56:58.030Z,64.00
2018-05-18T21:59:24.587Z,64.00
2018-05-18T22:01:51.690Z,64.90
2018-05-18T22:04:18.011Z,64.90
2018-05-18T22:06:44.411Z,65.70
2018-05-18T22:09:10.742Z,65.70
2018-05-18T22:11:37.843Z,68.20
2018-05-18T22:14:04.263Z,68.20
2018-05-18T22:16:31.306Z,68.70
2018-05-18T22:18:57.699Z,68.70
2018-05-18T22:21:24.013Z,67.90
2018-05-18T22:23:50.435Z,68.00
2018-05-18T22:26:17.788Z,68.10
2018-05-18T22:28:44.193Z,68.10
2018-05-18T22:31:10.539Z,67.10
2018-05-18T22:33:37.677Z,68.70
2018-05-18T22:36:04.024Z,68.50
2018-05-18T22:38:31.075Z,69.40
2018-05-18T22:40:57.472Z,69.40
2018-05-18T22:43:23.789Z,70.00
2018-05-18T22:45:50.160Z,70.20
2018-05-18T22:48:16.470Z,70.70
2018-05-18T22:50:43.600Z,71.10
2018-05-18T22:53:09.952Z,71.10
2018-05-18T22:55:36.333Z,71.10
2018-05-18T22:58:02.725Z,71.40
2018-05-18T23:00:29.137Z,72.00
2018-05-18T23:02:55.665Z,72.50
2018-05-18T23:05:22.755Z,71.50
2018-05-18T23:07:49.143Z,71.50
2018-05-18T23:10:15.467Z,71.80
2018-05-18T23:12:42.569Z,72.00
2018-05-18T23:15:08.909Z,72.00
2018-05-18T23:17:35.255Z,72.30
2018-05-18T23:20:01.570Z,72.30
2018-05-18T23:22:28.676Z,72.70
2018-05-18T23:24:55.019Z,72.70
2018-05-18T23:27:22.096Z,73.20
2018-05-18T23:29:48.405Z,73.20
2018-05-18T23:32:14.717Z,72.60
2018-05-18T23:34:41.074Z,73.50
2018-05-18T23:37:07.407Z,74.10
2018-05-18T23:39:33.726Z,74.80
2018-05-18T23:42:00.071Z,75.10
2018-05-18T23:44:26.424Z,74.90
2018-05-18T23:46:52.951Z,75.50
2018-05-18T23:49:19.280Z,75.40
2018-05-18T23:51:45.617Z,75.80
2018-05-18T23:54:11.966Z,76.40
2018-05-18T23:56:38.329Z,76.40
2018-05-18T23:59:04.655Z,76.40
